Time;durP1;ratioP1;P1;durP2;ratioP2;P2;SDS_P1;SDS_P2;PMS_P1;PMS_P2;Temp;Humidity;BMP_temperature;BMP_pressure;BME280_temperature;BME280_humidity;BME280_pressure;Samples;Min_cycle;Max_cycle;Signal;HPM_P1;HPM_P2
2023/02/08 00:05:00;;;;;;;;;;;;;;;-2.28;100.00;103845.91;10463308;28;20382;-68
2023/02/08 00:10:05;;;;;;;;;;;;;;;-2.42;100.00;103855.56;10446597;28;19944;-68
2023/02/08 00:15:07;;;;;;;;;;;;;;;-2.53;100.00;103861.88;10463334;28;19924;-68
2023/02/08 00:20:10;;;;;;;;;;;;;;;-2.50;100.00;103862.03;10447024;28;19921;-68
2023/02/08 00:25:12;;;;;;;;;;;;;;;-2.72;100.00;103861.00;10462750;28;19921;-68
2023/02/08 00:30:14;;;;;;;;;;;;;;;-2.42;100.00;103858.13;10462660;28;20326;-68
2023/02/08 00:35:17;;;;;;;;;;;;;;;-2.71;100.00;103854.19;10463353;28;20330;-68
2023/02/08 00:40:19;;;;;;;;;;;;;;;-2.70;100.00;103845.69;10463814;28;19947;-68
2023/02/08 00:45:22;;;;;;;;;;;;;;;-2.74;100.00;103844.69;10462055;28;19925;-68
2023/02/08 00:50:24;;;;;;;;;;;;;;;-2.81;100.00;103850.31;10462153;28;19924;-68
2023/02/08 00:55:26;;;;;;;;;;;;;;;-2.96;100.00;103849.59;10462748;28;20283;-68
2023/02/08 01:00:29;;;;;;;;;;;;;;;-2.83;100.00;103846.81;10462515;28;20299;-68
2023/02/08 01:05:31;;;;;;;;;;;;;;;-2.82;100.00;103839.19;10459962;28;19920;-68
2023/02/08 01:10:33;;;;;;;;;;;;;;;-2.81;100.00;103840.94;10461897;28;19925;-69
2023/02/08 01:15:35;;;;;;;;;;;;;;;-2.79;100.00;103843.59;10444316;28;19987;-68
2023/02/08 01:20:38;;;;;;;;;;;;;;;-2.89;100.00;103837.16;10461730;28;20356;-68
2023/02/08 01:25:41;;;;;;;;;;;;;;;-2.95;100.00;103836.84;10461052;28;19920;-68
2023/02/08 01:30:43;;;;;;;;;;;;;;;-2.97;100.00;103828.22;10460130;28;19925;-68
2023/02/08 01:35:48;;;;;;;;;;;;;;;-3.01;100.00;103831.41;10461120;28;20391;-68
2023/02/08 01:40:50;;;;;;;;;;;;;;;-2.96;100.00;103839.34;10460550;28;19924;-68
2023/02/08 01:45:52;;;;;;;;;;;;;;;-2.78;100.00;103842.75;10459656;28;19925;-68
2023/02/08 01:50:59;;;;;;;;;;;;;;;-2.90;100.00;103830.25;10459507;28;19944;-68
2023/02/08 01:56:03;;;;;;;;;;;;;;;-2.97;100.00;103833.34;10443203;28;19920;-68
2023/02/08 02:01:05;;;;;;;;;;;;;;;-2.93;100.00;103832.66;10460733;28;19920;-68
2023/02/08 02:06:09;;;;;;;;;;;;;;;-2.74;100.00;103819.03;10457739;28;20330;-68
2023/02/08 02:11:11;;;;;;;;;;;;;;;-3.05;100.00;103820.13;10441973;28;20414;-68
2023/02/08 02:16:14;;;;;;;;;;;;;;;-3.04;100.00;103821.91;10441422;28;19925;-68
2023/02/08 02:21:22;;;;;;;;;;;;;;;-3.12;100.00;103823.22;10458070;28;19925;-68
2023/02/08 02:26:39;;;;;;;;;;;;;;;-3.31;100.00;103813.78;10457152;28;20269;-69
2023/02/08 02:31:41;;;;;;;;;;;;;;;-3.16;100.00;103811.09;10440975;28;19936;-68
2023/02/08 02:37:05;;;;;;;;;;;;;;;-3.08;100.00;103814.84;10458522;28;19921;-68
2023/02/08 02:47:36;;;;;;;;;;;;;;;-3.14;100.00;103811.13;10443211;28;20318;-68
2023/02/08 02:52:59;;;;;;;;;;;;;;;-3.20;100.00;103804.03;10439326;28;20346;-68
2023/02/08 02:58:01;;;;;;;;;;;;;;;-2.93;100.00;103796.75;10457695;28;19921;-68
2023/02/08 03:03:05;;;;;;;;;;;;;;;-2.86;100.00;103801.41;10439487;28;19921;-68
2023/02/08 03:08:07;;;;;;;;;;;;;;;-2.88;100.00;103799.56;10440421;28;19967;-68
2023/02/08 03:13:17;;;;;;;;;;;;;;;-2.74;100.00;103795.06;10456660;28;19925;-68
2023/02/08 03:18:32;;;;;;;;;;;;;;;-2.68;100.00;103792.78;10423339;28;20379;-69
2023/02/08 03:23:39;;;;;;;;;;;;;;;-2.62;100.00;103799.06;10437342;28;19925;-69
2023/02/08 03:28:45;;;;;;;;;;;;;;;-2.63;100.00;103793.88;10438344;28;19920;-69
2023/02/08 03:33:48;;;;;;;;;;;;;;;-2.73;100.00;103789.13;10438513;28;19925;-69
2023/02/08 03:38:50;;;;;;;;;;;;;;;-2.89;100.00;103784.97;10457435;28;19920;-69
2023/02/08 03:43:56;;;;;;;;;;;;;;;-2.99;100.00;103788.81;10444459;22;20413;-65
2023/02/08 03:49:03;;;;;;;;;;;;;;;-3.07;100.00;103787.56;10457224;28;19921;-65
2023/02/08 03:54:15;;;;;;;;;;;;;;;-3.03;100.00;103790.31;10457130;28;19925;-65
2023/02/08 03:59:21;;;;;;;;;;;;;;;-3.20;100.00;103792.09;10454770;28;19921;-64
2023/02/08 04:04:24;;;;;;;;;;;;;;;-3.34;100.00;103790.56;10481876;28;20432;-64
2023/02/08 04:09:27;;;;;;;;;;;;;;;-3.55;100.00;103793.84;10480567;28;19969;-64
2023/02/08 04:14:29;;;;;;;;;;;;;;;-3.40;100.00;103790.25;10497561;28;19920;-65
2023/02/08 04:19:31;;;;;;;;;;;;;;;-3.13;100.00;103788.13;10496370;28;19921;-65
2023/02/08 04:24:33;;;;;;;;;;;;;;;-3.12;100.00;103794.16;10496464;28;19920;-65
2023/02/08 04:29:35;;;;;;;;;;;;;;;-3.26;100.00;103799.50;10497191;28;19928;-65
2023/02/08 04:34:38;;;;;;;;;;;;;;;-3.43;100.00;103803.81;10497184;28;20359;-65
2023/02/08 04:39:40;;;;;;;;;;;;;;;-3.27;100.00;103807.97;10498934;28;19928;-65
2023/02/08 04:44:42;;;;;;;;;;;;;;;-3.42;100.00;103814.94;10503806;28;19921;-65
2023/02/08 04:49:44;;;;;;;;;;;;;;;-3.50;100.00;103811.97;10504331;28;20321;-65
2023/02/08 04:54:47;;;;;;;;;;;;;;;-3.57;100.00;103810.78;10504641;28;19920;-65
2023/02/08 04:59:49;;;;;;;;;;;;;;;-3.47;100.00;103814.69;10486953;28;20011;-65
2023/02/08 05:04:51;;;;;;;;;;;;;;;-3.63;100.00;103819.84;10503021;28;19924;-65
2023/02/08 05:09:53;;;;;;;;;;;;;;;-3.65;100.00;103813.78;10502983;28;20389;-65
2023/02/08 05:14:56;;;;;;;;;;;;;;;-3.64;100.00;103806.19;10485672;28;19974;-65
2023/02/08 05:19:58;;;;;;;;;;;;;;;-3.29;100.00;103801.03;10503169;28;19921;-65
2023/02/08 05:25:00;;;;;;;;;;;;;;;-3.28;100.00;103787.41;10502918;28;19927;-65
2023/02/08 05:30:03;;;;;;;;;;;;;;;-3.14;100.00;103793.19;10502906;28;20363;-65
2023/02/08 05:35:05;;;;;;;;;;;;;;;-3.24;100.00;103791.88;10484872;28;19920;-65
2023/02/08 05:40:08;;;;;;;;;;;;;;;-3.27;100.00;103778.94;10484836;28;20394;-65
2023/02/08 05:45:10;;;;;;;;;;;;;;;-3.23;100.00;103781.72;10501358;28;19927;-65
2023/02/08 05:50:12;;;;;;;;;;;;;;;-3.16;100.00;103782.88;10500842;28;20314;-65
2023/02/08 05:55:16;;;;;;;;;;;;;;;-3.17;100.00;103782.00;10501749;28;20374;-65
2023/02/08 06:00:18;;;;;;;;;;;;;;;-3.16;100.00;103782.88;10501695;28;20382;-65
2023/02/08 06:05:21;;;;;;;;;;;;;;;-3.31;100.00;103774.44;10483022;28;19920;-65
2023/02/08 06:10:23;;;;;;;;;;;;;;;-3.22;100.00;103774.91;10483521;28;20371;-65
2023/02/08 06:15:25;;;;;;;;;;;;;;;-3.12;100.00;103758.28;10500439;28;20103;-65
2023/02/08 06:20:27;;;;;;;;;;;;;;;-3.15;100.00;103768.38;10501462;28;19921;-65
2023/02/08 06:25:29;;;;;;;;;;;;;;;-3.04;100.00;103774.91;10499679;28;19920;-65
2023/02/08 06:30:32;;;;;;;;;;;;;;;-3.02;100.00;103769.03;10500490;28;19927;-65
2023/02/08 06:35:34;;;;;;;;;;;;;;;-3.19;100.00;103763.09;10499985;28;19920;-65
2023/02/08 06:40:36;;;;;;;;;;;;;;;-3.00;100.00;103762.28;10500024;28;19994;-65
2023/02/08 06:45:38;;;;;;;;;;;;;;;-2.99;100.00;103758.91;10498911;28;19928;-65
2023/02/08 06:50:40;;;;;;;;;;;;;;;-2.94;100.00;103758.22;10500268;28;19925;-65
2023/02/08 06:55:47;;;;;;;;;;;;;;;-2.75;100.00;103768.53;10499348;28;19927;-65
2023/02/08 07:00:49;;;;;;;;;;;;;;;-2.78;100.00;103764.97;10499336;28;19967;-65
2023/02/08 07:05:51;;;;;;;;;;;;;;;-2.47;98.90;103762.06;10496721;28;19959;-65
2023/02/08 07:11:09;;;;;;;;;;;;;;;-2.69;100.00;103747.41;10499054;28;19970;-65
2023/02/08 07:16:11;;;;;;;;;;;;;;;-2.36;96.82;103760.84;10479833;28;19920;-65
2023/02/08 07:21:14;;;;;;;;;;;;;;;-2.21;94.64;103763.22;10499378;28;19921;-65
2023/02/08 07:26:16;;;;;;;;;;;;;;;-1.71;89.07;103756.78;10497370;28;19983;-65
2023/02/08 07:31:18;;;;;;;;;;;;;;;-2.03;90.13;103742.59;10497464;28;19943;-65
2023/02/08 07:36:21;;;;;;;;;;;;;;;-1.99;89.58;103741.91;10497290;28;20325;-65
2023/02/08 07:41:23;;;;;;;;;;;;;;;-1.52;87.13;103744.66;10480837;28;19928;-65
2023/02/08 07:46:25;;;;;;;;;;;;;;;-0.48;85.15;103741.75;10498071;28;19920;-65
2023/02/08 07:51:27;;;;;;;;;;;;;;;0.06;77.55;103744.47;10480901;28;20011;-65
2023/02/08 07:56:30;;;;;;;;;;;;;;;0.55;74.75;103738.34;10498684;28;19924;-65
2023/02/08 08:01:32;;;;;;;;;;;;;;;0.47;75.88;103738.91;10498594;28;19930;-66
2023/02/08 08:06:34;;;;;;;;;;;;;;;0.64;74.95;103736.88;10480727;28;19927;-66
2023/02/08 08:11:36;;;;;;;;;;;;;;;0.40;73.77;103735.25;10498359;28;19931;-65
2023/02/08 08:16:39;;;;;;;;;;;;;;;0.28;74.50;103747.75;10485242;28;19924;-65
2023/02/08 08:21:41;;;;;;;;;;;;;;;0.41;75.11;103743.91;10506246;28;19924;-65
2023/02/08 08:26:43;;;;;;;;;;;;;;;0.90;73.22;103735.09;10506026;28;19920;-65
2023/02/08 08:31:46;;;;;;;;;;;;;;;1.19;71.03;103727.34;10505199;28;19989;-65
2023/02/08 08:36:48;;;;;;;;;;;;;;;1.60;70.89;103725.91;10505720;28;19920;-65
2023/02/08 08:41:50;;;;;;;;;;;;;;;1.82;69.16;103724.75;10504576;28;19986;-65
2023/02/08 08:46:56;;;;;;;;;;;;;;;2.22;68.28;103720.59;10505182;28;20355;-65
2023/02/08 08:51:58;;;;;;;;;;;;;;;2.82;67.91;103715.06;10504060;28;19974;-65
2023/02/08 08:57:00;;;;;;;;;;;;;;;2.87;67.61;103709.13;10503514;28;19920;-65
2023/02/08 09:02:03;;;;;;;;;;;;;;;3.80;66.98;103708.34;10504660;28;19921;-65
2023/02/08 09:07:05;;;;;;;;;;;;;;;3.80;65.86;103714.41;10503906;28;20020;-65
2023/02/08 09:12:07;;;;;;;;;;;;;;;4.04;66.61;103718.28;10504375;28;19928;-66
2023/02/08 09:17:10;;;;;;;;;;;;;;;3.50;67.03;103714.72;10503480;28;19927;-66
2023/02/08 09:22:12;;;;;;;;;;;;;;;3.53;65.45;103730.31;10486158;28;19927;-66
2023/02/08 09:27:17;;;;;;;;;;;;;;;4.08;64.82;103713.19;10502986;28;19921;-67
2023/02/08 09:32:21;;;;;;;;;;;;;;;4.09;65.67;103714.91;10507866;28;20286;-65
2023/02/08 09:37:24;;;;;;;;;;;;;;;5.13;61.80;103706.88;10490761;28;19920;-66
2023/02/08 09:42:31;;;;;;;;;;;;;;;4.57;62.26;103710.47;10504255;28;19924;-66
2023/02/08 09:47:34;;;;;;;;;;;;;;;5.13;60.13;103719.00;10499935;28;19928;-66
2023/02/08 09:52:37;;;;;;;;;;;;;;;5.24;59.58;103719.09;10493111;28;19927;-66
2023/02/08 09:57:39;;;;;;;;;;;;;;;6.30;59.82;103725.34;10501128;28;20003;-66
2023/02/08 10:02:42;;;;;;;;;;;;;;;7.18;58.62;103712.81;10486561;28;19932;-66
2023/02/08 10:07:45;;;;;;;;;;;;;;;6.40;56.93;103729.75;10441256;28;19924;-66
2023/02/08 10:13:00;;;;;;;;;;;;;;;7.26;55.78;103737.16;10442407;28;19920;-66
2023/02/08 10:18:23;;;;;;;;;;;;;;;7.66;53.58;103741.63;10442776;28;19920;-66
2023/02/08 10:23:44;;;;;;;;;;;;;;;9.52;50.69;103732.56;10459504;28;20421;-66
2023/02/08 10:29:04;;;;;;;;;;;;;;;9.74;48.70;103734.16;10472229;28;20291;-67
2023/02/08 10:34:25;;;;;;;;;;;;;;;9.49;49.35;103733.44;10498073;28;19931;-66
2023/02/08 10:39:28;;;;;;;;;;;;;;;11.86;45.80;103730.03;10483026;28;19920;-67
2023/02/08 10:44:45;;;;;;;;;;;;;;;12.69;46.47;103719.81;10481137;28;19924;-67
2023/02/08 10:49:51;;;;;;;;;;;;;;;11.82;42.73;103730.97;10481916;28;19926;-67
2023/02/08 10:54:57;;;;;;;;;;;;;;;13.28;41.83;103722.97;10481669;28;19920;-67
2023/02/08 11:00:01;;;;;;;;;;;;;;;14.46;41.03;103721.84;10482307;28;19946;-67
2023/02/08 11:05:11;;;;;;;;;;;;;;;14.15;40.93;103711.25;10481534;28;19920;-67
2023/02/08 11:10:23;;;;;;;;;;;;;;;13.14;39.09;103718.00;10481524;28;20359;-68
2023/02/08 11:15:26;;;;;;;;;;;;;;;15.27;42.31;103699.31;10452540;28;19920;-67
2023/02/08 11:20:31;;;;;;;;;;;;;;;14.80;40.58;103694.56;10456920;28;19927;-68
2023/02/08 11:25:37;;;;;;;;;;;;;;;14.84;39.62;103690.94;10456693;28;19947;-68
2023/02/08 11:30:39;;;;;;;;;;;;;;;17.91;38.95;103676.47;10440107;28;19966;-68
2023/02/08 11:35:41;;;;;;;;;;;;;;;17.14;39.28;103677.81;10456676;28;20050;-68
2023/02/08 11:40:44;;;;;;;;;;;;;;;15.41;34.25;103675.97;10456414;28;19974;-68
2023/02/08 11:45:47;;;;;;;;;;;;;;;15.96;33.33;103669.81;10456750;28;19925;-68
2023/02/08 11:50:53;;;;;;;;;;;;;;;16.27;32.69;103661.66;10464595;28;19920;-68
2023/02/08 11:56:00;;;;;;;;;;;;;;;15.01;34.41;103663.16;10470037;28;19946;-68
2023/02/08 12:01:04;;;;;;;;;;;;;;;12.58;35.06;103655.19;10469814;28;19921;-68
2023/02/08 12:06:24;;;;;;;;;;;;;;;11.37;38.17;103652.94;10470096;28;19983;-68
2023/02/08 12:11:59;;;;;;;;;;;;;;;10.66;37.25;103646.03;10470773;28;19955;-68
2023/02/08 12:17:01;;;;;;;;;;;;;;;9.76;38.17;103655.66;10447200;28;19920;-68
2023/02/08 12:22:09;;;;;;;;;;;;;;;9.84;37.42;103636.38;10469979;28;20275;-67
2023/02/08 12:27:27;;;;;;;;;;;;;;;9.25;38.24;103633.34;10469259;28;19921;-67
2023/02/08 12:32:49;;;;;;;;;;;;;;;10.54;36.78;103623.47;10469367;28;19920;-67
2023/02/08 12:43:22;;;;;;;;;;;;;;;9.04;37.99;103605.59;10469342;28;20368;-67
2023/02/08 12:48:32;;;;;;;;;;;;;;;8.30;39.50;103592.84;10469104;28;19936;-67
2023/02/08 12:53:42;;;;;;;;;;;;;;;8.12;40.62;103582.47;10468222;28;20314;-67
2023/02/08 12:58:45;;;;;;;;;;;;;;;8.02;38.20;103584.25;10468152;28;19921;-67
2023/02/08 13:03:48;;;;;;;;;;;;;;;9.06;37.79;103569.88;10462079;28;19955;-67
2023/02/08 13:08:57;;;;;;;;;;;;;;;10.12;38.82;103543.63;10462528;28;20363;-66
2023/02/08 13:14:09;;;;;;;;;;;;;;;9.71;37.23;103552.81;10461870;28;19924;-66
2023/02/08 13:19:11;;;;;;;;;;;;;;;12.14;32.77;103541.38;10461006;28;19927;-66
2023/02/08 13:24:33;;;;;;;;;;;;;;;13.17;32.76;103533.78;10462451;28;19928;-66
2023/02/08 13:29:36;;;;;;;;;;;;;;;14.96;32.30;103527.91;10461604;28;20276;-66
2023/02/08 13:34:49;;;;;;;;;;;;;;;16.45;28.59;103524.41;10460382;28;19924;-67
2023/02/08 13:40:05;;;;;;;;;;;;;;;11.11;34.77;103527.44;10460098;28;20360;-67
2023/02/08 13:45:08;;;;;;;;;;;;;;;9.96;37.45;103522.88;10460125;28;19931;-66
2023/02/08 13:50:29;;;;;;;;;;;;;;;10.10;35.58;103514.84;10460492;28;19924;-66
2023/02/08 13:55:39;;;;;;;;;;;;;;;9.28;38.62;103514.84;10461219;28;19935;-66
2023/02/08 14:00:55;;;;;;;;;;;;;;;8.08;38.05;103507.69;10460632;28;19955;-66
2023/02/08 14:06:04;;;;;;;;;;;;;;;7.34;37.92;103489.56;10460788;28;19924;-66
2023/02/08 14:11:21;;;;;;;;;;;;;;;7.14;40.36;103495.66;10470827;28;19921;-66
2023/02/08 14:16:31;;;;;;;;;;;;;;;7.20;41.32;103489.59;10501839;28;19920;-66
2023/02/08 14:21:37;;;;;;;;;;;;;;;8.59;39.86;103477.03;10483982;28;19924;-66
2023/02/08 14:26:39;;;;;;;;;;;;;;;9.95;36.43;103471.44;10499888;28;19927;-66
2023/02/08 14:31:42;;;;;;;;;;;;;;;7.44;42.23;103467.84;10482030;28;19924;-66
2023/02/08 14:36:45;;;;;;;;;;;;;;;6.61;44.68;103480.84;10483249;28;19964;-66
2023/02/08 14:41:48;;;;;;;;;;;;;;;6.54;43.57;103473.88;10500531;28;19924;-66
2023/02/08 14:46:51;;;;;;;;;;;;;;;6.05;45.64;103469.38;10481751;28;19921;-66
2023/02/08 14:51:55;;;;;;;;;;;;;;;5.55;47.91;103463.88;10498940;28;19927;-65
2023/02/08 14:57:01;;;;;;;;;;;;;;;5.23;52.57;103461.06;10482628;28;19924;-66
2023/02/08 15:02:11;;;;;;;;;;;;;;;4.64;53.09;103457.97;10448943;28;20379;-66
2023/02/08 15:07:22;;;;;;;;;;;;;;;4.87;52.78;103446.06;10478255;28;20338;-65
2023/02/08 15:12:24;;;;;;;;;;;;;;;4.05;55.83;103451.25;10499230;28;19921;-66
2023/02/08 15:17:27;;;;;;;;;;;;;;;4.15;56.16;103433.19;10498989;28;20355;-65
2023/02/08 15:22:31;;;;;;;;;;;;;;;3.83;56.07;103423.28;10481722;28;19966;-65
2023/02/08 15:27:33;;;;;;;;;;;;;;;3.75;57.53;103422.31;10498074;28;19985;-65
2023/02/08 15:32:35;;;;;;;;;;;;;;;3.88;57.20;103408.69;10481416;28;19920;-65
2023/02/08 15:37:38;;;;;;;;;;;;;;;3.73;58.62;103391.22;10498501;28;20380;-65
2023/02/08 15:42:42;;;;;;;;;;;;;;;3.43;58.90;103389.06;10480555;28;19920;-65
2023/02/08 15:47:44;;;;;;;;;;;;;;;3.69;58.11;103379.94;10498894;28;19920;-65
2023/02/08 15:52:46;;;;;;;;;;;;;;;3.02;60.75;103368.63;10480387;28;19920;-65
2023/02/08 15:58:17;;;;;;;;;;;;;;;2.99;61.14;103369.44;10455073;22;19926;-68
2023/02/08 16:03:22;;;;;;;;;;;;;;;2.83;62.18;103365.75;10321144;28;19976;-68
2023/02/08 16:08:26;;;;;;;;;;;;;;;2.47;64.03;103369.47;10333182;28;19921;-68
2023/02/08 16:13:29;;;;;;;;;;;;;;;2.20;64.95;103367.25;10332599;28;19932;-68
2023/02/08 16:18:51;;;;;;;;;;;;;;;1.94;66.38;103361.59;10317016;28;19949;-68
2023/02/08 16:23:55;;;;;;;;;;;;;;;2.17;66.02;103357.72;10332868;28;19976;-68
2023/02/08 16:29:01;;;;;;;;;;;;;;;1.79;66.77;103344.94;10333447;28;19922;-68
2023/02/08 16:34:05;;;;;;;;;;;;;;;1.78;67.68;103339.72;10333320;28;19976;-68
2023/02/08 16:39:13;;;;;;;;;;;;;;;1.60;68.89;103335.94;10339305;28;20328;-69
2023/02/08 16:44:17;;;;;;;;;;;;;;;1.23;69.35;103331.72;10341294;28;19928;-68
2023/02/08 16:49:20;;;;;;;;;;;;;;;1.02;69.17;103330.38;10339270;28;20392;-68
2023/02/08 16:54:23;;;;;;;;;;;;;;;1.16;69.93;103332.38;10340723;28;19925;-68
2023/02/08 16:59:28;;;;;;;;;;;;;;;0.93;68.47;103328.44;10339188;28;20016;-68
2023/02/08 17:04:30;;;;;;;;;;;;;;;0.88;69.56;103318.88;10340499;28;19928;-68
2023/02/08 17:09:33;;;;;;;;;;;;;;;0.99;70.51;103303.63;10339825;28;20305;-68
2023/02/08 17:14:35;;;;;;;;;;;;;;;0.83;70.44;103292.09;10339997;28;19921;-68
2023/02/08 17:19:37;;;;;;;;;;;;;;;0.69;70.54;103291.75;10340072;28;19925;-69
2023/02/08 17:24:40;;;;;;;;;;;;;;;0.54;70.46;103292.28;10339337;28;19922;-69
2023/02/08 17:29:43;;;;;;;;;;;;;;;0.36;70.75;103298.72;10338622;28;19929;-68
2023/02/08 17:34:45;;;;;;;;;;;;;;;0.53;71.84;103285.38;10339369;28;19922;-68
2023/02/08 17:39:47;;;;;;;;;;;;;;;0.45;72.54;103302.34;10339400;28;19928;-68
2023/02/08 17:44:49;;;;;;;;;;;;;;;0.34;72.31;103307.25;10338009;28;19922;-69
2023/02/08 17:49:52;;;;;;;;;;;;;;;-0.01;74.37;103297.75;10336381;28;19988;-68
2023/02/08 17:54:54;;;;;;;;;;;;;;;0.20;73.93;103300.84;10338764;28;19922;-68
2023/02/08 17:59:56;;;;;;;;;;;;;;;-0.05;74.36;103292.47;10336103;28;19984;-69
2023/02/08 18:04:58;;;;;;;;;;;;;;;0.15;73.83;103280.13;10335487;28;19930;-69
2023/02/08 18:10:02;;;;;;;;;;;;;;;0.22;72.94;103284.63;10337162;28;19922;-70
2023/02/08 18:15:05;;;;;;;;;;;;;;;0.01;74.21;103279.78;10337694;28;19921;-69
2023/02/08 18:20:08;;;;;;;;;;;;;;;0.02;74.14;103278.06;10377224;28;20357;-69
2023/02/08 18:25:11;;;;;;;;;;;;;;;-0.13;74.58;103281.13;10347321;28;20385;-69
2023/02/08 18:30:13;;;;;;;;;;;;;;;-0.23;75.37;103270.56;10319268;28;20000;-69
2023/02/08 18:35:16;;;;;;;;;;;;;;;-0.25;75.68;103264.50;10336484;28;19922;-69
2023/02/08 18:40:18;;;;;;;;;;;;;;;-0.25;75.27;103251.63;10376479;28;19944;-69
2023/02/08 18:45:20;;;;;;;;;;;;;;;-0.28;76.08;103250.69;10377377;28;19922;-69
2023/02/08 18:50:22;;;;;;;;;;;;;;;-0.34;76.32;103246.22;10348651;28;19969;-70
2023/02/08 18:55:25;;;;;;;;;;;;;;;-0.21;76.60;103250.00;10336060;28;19976;-69
2023/02/08 19:00:27;;;;;;;;;;;;;;;-0.40;75.91;103259.81;10335409;28;19952;-69
2023/02/08 19:05:29;;;;;;;;;;;;;;;-0.65;75.81;103247.94;10335280;28;19925;-69
2023/02/08 19:10:34;;;;;;;;;;;;;;;-0.42;77.02;103252.84;10335198;28;19928;-69
2023/02/08 19:15:39;;;;;;;;;;;;;;;-0.35;77.22;103246.16;10317386;28;19922;-69
2023/02/08 19:20:41;;;;;;;;;;;;;;;-0.31;75.84;103238.59;10317391;28;19925;-69
2023/02/08 19:25:45;;;;;;;;;;;;;;;-0.29;74.96;103238.63;10334616;28;19922;-68
2023/02/08 19:30:47;;;;;;;;;;;;;;;-0.06;74.51;103237.53;10335096;28;19926;-69
2023/02/08 19:35:49;;;;;;;;;;;;;;;-0.23;73.61;103236.22;10335079;28;19929;-69
2023/02/08 19:40:52;;;;;;;;;;;;;;;-0.23;73.61;103224.22;10334989;28;19929;-68
2023/02/08 19:45:55;;;;;;;;;;;;;;;-0.27;73.44;103221.50;10316982;28;19928;-68
2023/02/08 19:50:58;;;;;;;;;;;;;;;-0.11;73.22;103217.66;10334796;28;20008;-68
2023/02/08 19:56:01;;;;;;;;;;;;;;;-0.40;73.39;103220.31;10300681;28;19922;-68
2023/02/08 20:01:06;;;;;;;;;;;;;;;-0.21;72.93;103207.09;10333964;28;19922;-68
2023/02/08 20:06:13;;;;;;;;;;;;;;;-0.26;71.68;103211.25;10334400;28;19976;-68
2023/02/08 20:11:19;;;;;;;;;;;;;;;-0.26;72.59;103211.25;10336950;28;19922;-68
2023/02/08 20:16:22;;;;;;;;;;;;;;;-0.51;72.35;103227.75;10325038;28;19922;-68
2023/02/08 20:21:24;;;;;;;;;;;;;;;-0.72;73.53;103230.59;10324078;28;19921;-68
2023/02/08 20:26:27;;;;;;;;;;;;;;;-0.56;73.59;103237.91;10341374;28;20365;-68
2023/02/08 20:31:31;;;;;;;;;;;;;;;-0.80;74.21;103234.66;10324024;28;19934;-67
2023/02/08 20:36:39;;;;;;;;;;;;;;;-0.78;74.82;103233.84;10324414;28;19922;-67
2023/02/08 20:41:46;;;;;;;;;;;;;;;-0.86;74.48;103243.03;10324444;28;20002;-67
2023/02/08 20:46:48;;;;;;;;;;;;;;;-0.76;74.55;103241.59;10341194;28;19921;-67
2023/02/08 20:51:51;;;;;;;;;;;;;;;-0.08;70.15;103236.63;10341096;28;19921;-67
2023/02/08 20:56:54;;;;;;;;;;;;;;;-0.69;71.79;103245.22;10323595;28;19976;-67
2023/02/08 21:01:56;;;;;;;;;;;;;;;-0.02;71.00;103238.47;10339919;28;19928;-68
2023/02/08 21:06:58;;;;;;;;;;;;;;;-0.43;71.76;103228.81;10323198;28;19921;-68
2023/02/08 21:12:00;;;;;;;;;;;;;;;-0.16;71.10;103232.09;10339696;28;20340;-67
2023/02/08 21:17:03;;;;;;;;;;;;;;;-0.16;71.17;103220.09;10339501;28;20285;-68
2023/02/08 21:22:05;;;;;;;;;;;;;;;-0.04;69.98;103222.97;10336664;28;19921;-68
2023/02/08 21:27:07;;;;;;;;;;;;;;;0.25;67.13;103219.38;10337733;28;19922;-68
2023/02/08 21:32:09;;;;;;;;;;;;;;;0.34;66.22;103215.34;10338684;28;19925;-68
2023/02/08 21:37:12;;;;;;;;;;;;;;;0.24;66.69;103202.22;10338475;28;19983;-68
2023/02/08 21:42:14;;;;;;;;;;;;;;;0.29;66.58;103195.47;10339067;28;19922;-68
2023/02/08 21:47:16;;;;;;;;;;;;;;;0.63;63.33;103197.09;10319925;28;19995;-68
2023/02/08 21:57:39;;;;;;;;;;;;;;;0.45;64.93;103182.06;10322693;28;19926;-67
2023/02/08 22:02:42;;;;;;;;;;;;;;;0.40;65.29;103190.53;10336935;28;19922;-67
2023/02/08 22:07:45;;;;;;;;;;;;;;;0.47;65.11;103189.84;10301296;28;19922;-67
2023/02/08 22:12:48;;;;;;;;;;;;;;;0.59;62.61;103184.09;10320194;28;20336;-68
2023/02/08 22:17:51;;;;;;;;;;;;;;;0.33;65.37;103189.53;10302543;28;19921;-68
2023/02/08 22:22:53;;;;;;;;;;;;;;;0.09;66.38;103182.09;10334454;28;19922;-68
2023/02/08 22:27:56;;;;;;;;;;;;;;;-0.02;66.23;103179.22;10335055;28;19921;-68
2023/02/08 22:32:59;;;;;;;;;;;;;;;0.13;66.12;103163.28;10336740;28;19926;-68
2023/02/08 22:38:01;;;;;;;;;;;;;;;0.07;65.96;103164.03;10331534;28;19929;-68
2023/02/08 22:43:03;;;;;;;;;;;;;;;0.06;66.16;103169.13;10324490;28;19922;-68
2023/02/08 22:48:05;;;;;;;;;;;;;;;0.05;66.28;103168.28;10334227;28;19951;-68
2023/02/08 22:53:07;;;;;;;;;;;;;;;0.23;64.67;103157.50;10336519;28;19921;-68
2023/02/08 22:58:10;;;;;;;;;;;;;;;0.19;65.33;103153.13;10333820;28;19933;-68
2023/02/08 23:03:12;;;;;;;;;;;;;;;0.00;65.46;103159.56;10336086;28;19968;-69
2023/02/08 23:08:16;;;;;;;;;;;;;;;-0.16;66.39;103155.72;10315176;28;19964;-68
2023/02/08 23:13:18;;;;;;;;;;;;;;;-0.06;66.21;103156.81;10315351;28;19992;-68
2023/02/08 23:18:21;;;;;;;;;;;;;;;-0.07;65.86;103137.03;10317643;28;19928;-68
2023/02/08 23:23:23;;;;;;;;;;;;;;;-0.11;65.72;103143.81;10312223;28;19921;-68
2023/02/08 23:28:25;;;;;;;;;;;;;;;-0.05;65.90;103145.66;10335178;28;19926;-68
2023/02/08 23:33:27;;;;;;;;;;;;;;;-0.26;66.40;103128.88;10334559;28;19969;-68
2023/02/08 23:38:29;;;;;;;;;;;;;;;-0.24;66.18;103126.31;10333124;28;20025;-69
2023/02/08 23:43:32;;;;;;;;;;;;;;;-0.21;67.15;103135.00;10334311;28;20432;-68
2023/02/08 23:48:34;;;;;;;;;;;;;;;-0.31;66.27;103127.03;10333957;28;19922;-68
2023/02/08 23:53:38;;;;;;;;;;;;;;;-0.28;66.77;103124.53;10300301;28;19975;-68
2023/02/08 23:58:41;;;;;;;;;;;;;;;-0.34;66.81;103124.38;10333652;28;20274;-68
